sensor_id;sensor_type;location;lat;lon;timestamp;temperature;humidity
16513;DHT22;8369;48.030;11.598;2023-05-15T00:00:41;11.60;99.90
16513;DHT22;8369;48.030;11.598;2023-05-15T00:03:09;11.60;99.90
16513;DHT22;8369;48.030;11.598;2023-05-15T00:05:36;11.50;99.90
16513;DHT22;8369;48.030;11.598;2023-05-15T00:08:03;11.50;99.90
16513;DHT22;8369;48.030;11.598;2023-05-15T00:10:29;11.60;99.90
16513;DHT22;8369;48.030;11.598;2023-05-15T00:12:55;11.60;99.90
16513;DHT22;8369;48.030;11.598;2023-05-15T00:15:21;11.60;99.90
16513;DHT22;8369;48.030;11.598;2023-05-15T00:17:47;11.50;99.90
16513;DHT22;8369;48.030;11.598;2023-05-15T00:20:14;11.60;99.90
16513;DHT22;8369;48.030;11.598;2023-05-15T00:22:40;11.60;99.90
16513;DHT22;8369;48.030;11.598;2023-05-15T00:25:07;11.60;99.90
16513;DHT22;8369;48.030;11.598;2023-05-15T00:27:33;11.60;99.90
16513;DHT22;8369;48.030;11.598;2023-05-15T00:29:59;11.60;99.90
16513;DHT22;8369;48.030;11.598;2023-05-15T00:32:25;11.60;99.90
16513;DHT22;8369;48.030;11.598;2023-05-15T00:34:51;11.50;99.90
16513;DHT22;8369;48.030;11.598;2023-05-15T00:37:42;11.50;99.90
16513;DHT22;8369;48.030;11.598;2023-05-15T00:40:11;11.50;99.90
16513;DHT22;8369;48.030;11.598;2023-05-15T00:42:43;11.50;99.90
16513;DHT22;8369;48.030;11.598;2023-05-15T00:45:12;11.50;99.90
16513;DHT22;8369;48.030;11.598;2023-05-15T00:47:39;11.50;99.90
16513;DHT22;8369;48.030;11.598;2023-05-15T00:50:10;11.50;99.90
16513;DHT22;8369;48.030;11.598;2023-05-15T00:52:37;11.40;99.90
16513;DHT22;8369;48.030;11.598;2023-05-15T00:55:04;11.50;99.90
16513;DHT22;8369;48.030;11.598;2023-05-15T00:57:32;11.50;99.90
16513;DHT22;8369;48.030;11.598;2023-05-15T01:00:00;11.40;99.90
16513;DHT22;8369;48.030;11.598;2023-05-15T01:02:27;11.40;99.90
16513;DHT22;8369;48.030;11.598;2023-05-15T01:04:53;11.40;99.90
16513;DHT22;8369;48.030;11.598;2023-05-15T01:07:20;11.40;99.90
16513;DHT22;8369;48.030;11.598;2023-05-15T01:09:48;11.40;99.90
16513;DHT22;8369;48.030;11.598;2023-05-15T01:12:16;11.30;99.90
16513;DHT22;8369;48.030;11.598;2023-05-15T01:14:44;11.30;99.90
16513;DHT22;8369;48.030;11.598;2023-05-15T01:17:11;11.30;99.90
16513;DHT22;8369;48.030;11.598;2023-05-15T01:19:37;11.30;99.90
16513;DHT22;8369;48.030;11.598;2023-05-15T01:28:04;11.30;99.90
16513;DHT22;8369;48.030;11.598;2023-05-15T01:30:35;11.30;99.90
16513;DHT22;8369;48.030;11.598;2023-05-15T01:33:17;11.30;99.90
16513;DHT22;8369;48.030;11.598;2023-05-15T01:35:58;11.20;99.90
16513;DHT22;8369;48.030;11.598;2023-05-15T01:38:48;11.20;99.90
16513;DHT22;8369;48.030;11.598;2023-05-15T01:47:14;11.10;99.90
16513;DHT22;8369;48.030;11.598;2023-05-15T01:49:44;11.10;99.90
16513;DHT22;8369;48.030;11.598;2023-05-15T01:52:30;11.10;99.90
16513;DHT22;8369;48.030;11.598;2023-05-15T01:54:57;11.10;99.90
16513;DHT22;8369;48.030;11.598;2023-05-15T01:57:27;11.10;99.90
16513;DHT22;8369;48.030;11.598;2023-05-15T01:59:54;11.10;99.90
16513;DHT22;8369;48.030;11.598;2023-05-15T02:02:23;11.10;99.90
16513;DHT22;8369;48.030;11.598;2023-05-15T02:04:49;11.10;99.90
16513;DHT22;8369;48.030;11.598;2023-05-15T02:07:17;11.10;99.90
16513;DHT22;8369;48.030;11.598;2023-05-15T02:09:44;11.10;99.90
16513;DHT22;8369;48.030;11.598;2023-05-15T02:12:12;11.00;99.90
16513;DHT22;8369;48.030;11.598;2023-05-15T02:14:40;11.00;99.90
16513;DHT22;8369;48.030;11.598;2023-05-15T02:17:07;11.00;99.90
16513;DHT22;8369;48.030;11.598;2023-05-15T02:19:34;11.10;99.90
16513;DHT22;8369;48.030;11.598;2023-05-15T02:22:01;11.10;99.90
16513;DHT22;8369;48.030;11.598;2023-05-15T02:24:28;11.10;99.90
16513;DHT22;8369;48.030;11.598;2023-05-15T02:27:45;11.00;99.90
16513;DHT22;8369;48.030;11.598;2023-05-15T02:30:37;11.10;99.90
16513;DHT22;8369;48.030;11.598;2023-05-15T02:33:11;11.10;99.90
16513;DHT22;8369;48.030;11.598;2023-05-15T02:38:22;11.00;99.90
16513;DHT22;8369;48.030;11.598;2023-05-15T02:40:50;11.00;99.90
16513;DHT22;8369;48.030;11.598;2023-05-15T02:43:19;11.00;99.90
16513;DHT22;8369;48.030;11.598;2023-05-15T02:45:48;11.00;99.90
16513;DHT22;8369;48.030;11.598;2023-05-15T02:48:16;11.00;99.90
16513;DHT22;8369;48.030;11.598;2023-05-15T02:50:42;11.00;99.90
16513;DHT22;8369;48.030;11.598;2023-05-15T02:53:09;11.00;99.90
16513;DHT22;8369;48.030;11.598;2023-05-15T02:55:36;11.00;99.90
16513;DHT22;8369;48.030;11.598;2023-05-15T02:58:03;11.00;99.90
16513;DHT22;8369;48.030;11.598;2023-05-15T03:00:29;10.90;99.90
16513;DHT22;8369;48.030;11.598;2023-05-15T03:02:56;11.00;99.90
16513;DHT22;8369;48.030;11.598;2023-05-15T03:05:22;11.00;99.90
16513;DHT22;8369;48.030;11.598;2023-05-15T03:07:48;11.00;99.90
16513;DHT22;8369;48.030;11.598;2023-05-15T03:10:15;10.90;99.90
16513;DHT22;8369;48.030;11.598;2023-05-15T03:12:41;10.90;99.90
16513;DHT22;8369;48.030;11.598;2023-05-15T03:15:08;10.90;99.90
16513;DHT22;8369;48.030;11.598;2023-05-15T03:17:37;10.90;99.90
16513;DHT22;8369;48.030;11.598;2023-05-15T03:20:04;11.00;99.90
16513;DHT22;8369;48.030;11.598;2023-05-15T03:22:30;10.90;99.90
16513;DHT22;8369;48.030;11.598;2023-05-15T03:24:57;10.90;99.90
16513;DHT22;8369;48.030;11.598;2023-05-15T03:27:23;10.90;99.90
16513;DHT22;8369;48.030;11.598;2023-05-15T03:29:53;10.90;99.90
16513;DHT22;8369;48.030;11.598;2023-05-15T03:32:20;10.90;99.90
16513;DHT22;8369;48.030;11.598;2023-05-15T03:34:46;10.90;99.90
16513;DHT22;8369;48.030;11.598;2023-05-15T03:37:13;10.90;99.90
16513;DHT22;8369;48.030;11.598;2023-05-15T03:39:39;10.90;99.90
16513;DHT22;8369;48.030;11.598;2023-05-15T03:42:06;10.90;99.90
16513;DHT22;8369;48.030;11.598;2023-05-15T03:44:33;10.90;99.90
16513;DHT22;8369;48.030;11.598;2023-05-15T03:46:59;10.90;99.90
16513;DHT22;8369;48.030;11.598;2023-05-15T03:49:27;10.90;99.90
16513;DHT22;8369;48.030;11.598;2023-05-15T03:51:55;10.90;99.90
16513;DHT22;8369;48.030;11.598;2023-05-15T03:54:21;10.90;99.90
16513;DHT22;8369;48.030;11.598;2023-05-15T03:56:47;10.90;99.90
16513;DHT22;8369;48.030;11.598;2023-05-15T03:59:14;10.90;99.90
16513;DHT22;8369;48.030;11.598;2023-05-15T04:01:40;10.90;99.90
16513;DHT22;8369;48.030;11.598;2023-05-15T04:04:07;10.90;99.90
16513;DHT22;8369;48.030;11.598;2023-05-15T04:06:34;10.90;99.90
16513;DHT22;8369;48.030;11.598;2023-05-15T04:09:00;11.00;99.90
16513;DHT22;8369;48.030;11.598;2023-05-15T04:11:26;11.00;99.90
16513;DHT22;8369;48.030;11.598;2023-05-15T04:13:53;11.00;99.90
16513;DHT22;8369;48.030;11.598;2023-05-15T04:16:19;11.10;99.90
16513;DHT22;8369;48.030;11.598;2023-05-15T04:18:46;11.10;99.90
16513;DHT22;8369;48.030;11.598;2023-05-15T04:21:12;11.00;99.90
16513;DHT22;8369;48.030;11.598;2023-05-15T04:23:38;11.00;99.90
16513;DHT22;8369;48.030;11.598;2023-05-15T04:26:06;11.10;99.90
16513;DHT22;8369;48.030;11.598;2023-05-15T04:28:33;11.10;99.90
16513;DHT22;8369;48.030;11.598;2023-05-15T04:30:59;11.10;99.90
16513;DHT22;8369;48.030;11.598;2023-05-15T04:33:26;11.10;99.90
16513;DHT22;8369;48.030;11.598;2023-05-15T04:35:52;11.10;99.90
16513;DHT22;8369;48.030;11.598;2023-05-15T04:38:18;11.10;99.90
16513;DHT22;8369;48.030;11.598;2023-05-15T04:40:48;11.10;99.90
16513;DHT22;8369;48.030;11.598;2023-05-15T04:43:14;11.20;99.90
16513;DHT22;8369;48.030;11.598;2023-05-15T04:45:40;11.10;99.90
16513;DHT22;8369;48.030;11.598;2023-05-15T04:48:07;11.10;99.90
16513;DHT22;8369;48.030;11.598;2023-05-15T04:50:34;11.10;99.90
16513;DHT22;8369;48.030;11.598;2023-05-15T04:53:01;11.10;99.90
16513;DHT22;8369;48.030;11.598;2023-05-15T04:55:28;11.10;99.90
16513;DHT22;8369;48.030;11.598;2023-05-15T04:57:55;11.10;99.90
16513;DHT22;8369;48.030;11.598;2023-05-15T05:00:21;11.20;99.90
16513;DHT22;8369;48.030;11.598;2023-05-15T05:02:48;11.20;99.90
16513;DHT22;8369;48.030;11.598;2023-05-15T05:05:14;11.20;99.90
16513;DHT22;8369;48.030;11.598;2023-05-15T05:07:41;11.20;99.90
16513;DHT22;8369;48.030;11.598;2023-05-15T05:10:09;11.30;99.90
16513;DHT22;8369;48.030;11.598;2023-05-15T05:12:35;11.30;99.90
16513;DHT22;8369;48.030;11.598;2023-05-15T05:15:03;11.40;99.90
16513;DHT22;8369;48.030;11.598;2023-05-15T05:17:29;11.40;99.90
16513;DHT22;8369;48.030;11.598;2023-05-15T05:19:56;11.40;99.90
16513;DHT22;8369;48.030;11.598;2023-05-15T05:22:22;11.40;99.90
16513;DHT22;8369;48.030;11.598;2023-05-15T05:24:48;11.40;99.90
16513;DHT22;8369;48.030;11.598;2023-05-15T05:27:14;11.40;99.90
16513;DHT22;8369;48.030;11.598;2023-05-15T05:29:42;11.40;99.90
16513;DHT22;8369;48.030;11.598;2023-05-15T05:32:08;11.40;99.90
16513;DHT22;8369;48.030;11.598;2023-05-15T05:34:34;11.40;99.90
16513;DHT22;8369;48.030;11.598;2023-05-15T05:37:01;11.50;99.90
16513;DHT22;8369;48.030;11.598;2023-05-15T05:39:27;11.50;99.90
16513;DHT22;8369;48.030;11.598;2023-05-15T05:41:54;11.40;99.90
16513;DHT22;8369;48.030;11.598;2023-05-15T05:44:20;11.50;99.90
16513;DHT22;8369;48.030;11.598;2023-05-15T05:46:47;11.50;99.90
16513;DHT22;8369;48.030;11.598;2023-05-15T05:49:13;11.50;99.90
16513;DHT22;8369;48.030;11.598;2023-05-15T05:51:39;11.50;99.90
16513;DHT22;8369;48.030;11.598;2023-05-15T05:54:05;11.50;99.90
16513;DHT22;8369;48.030;11.598;2023-05-15T05:56:32;11.50;99.90
16513;DHT22;8369;48.030;11.598;2023-05-15T05:58:58;11.50;99.90
16513;DHT22;8369;48.030;11.598;2023-05-15T06:01:26;11.60;99.90
16513;DHT22;8369;48.030;11.598;2023-05-15T06:03:53;11.60;99.90
16513;DHT22;8369;48.030;11.598;2023-05-15T06:06:20;11.60;99.90
16513;DHT22;8369;48.030;11.598;2023-05-15T06:08:47;11.60;99.90
16513;DHT22;8369;48.030;11.598;2023-05-15T06:11:13;11.60;99.90
16513;DHT22;8369;48.030;11.598;2023-05-15T06:13:40;11.70;99.90
16513;DHT22;8369;48.030;11.598;2023-05-15T06:16:07;11.70;99.90
16513;DHT22;8369;48.030;11.598;2023-05-15T06:18:33;11.80;99.90
16513;DHT22;8369;48.030;11.598;2023-05-15T06:21:00;11.80;99.90
16513;DHT22;8369;48.030;11.598;2023-05-15T06:23:27;11.80;99.90
16513;DHT22;8369;48.030;11.598;2023-05-15T06:25:54;11.90;99.90
16513;DHT22;8369;48.030;11.598;2023-05-15T06:28:21;11.90;99.90
16513;DHT22;8369;48.030;11.598;2023-05-15T06:30:47;12.00;99.90
16513;DHT22;8369;48.030;11.598;2023-05-15T06:33:13;12.00;99.90
16513;DHT22;8369;48.030;11.598;2023-05-15T06:35:40;12.00;99.90
16513;DHT22;8369;48.030;11.598;2023-05-15T06:38:07;12.00;99.90
16513;DHT22;8369;48.030;11.598;2023-05-15T06:40:33;12.00;99.90
16513;DHT22;8369;48.030;11.598;2023-05-15T06:43:00;12.10;99.90
16513;DHT22;8369;48.030;11.598;2023-05-15T06:45:26;12.10;99.90
16513;DHT22;8369;48.030;11.598;2023-05-15T06:47:52;12.20;99.90
16513;DHT22;8369;48.030;11.598;2023-05-15T06:50:19;12.20;99.90
16513;DHT22;8369;48.030;11.598;2023-05-15T06:52:45;12.20;99.90
16513;DHT22;8369;48.030;11.598;2023-05-15T06:55:13;12.20;99.90
16513;DHT22;8369;48.030;11.598;2023-05-15T06:57:38;12.20;99.90
16513;DHT22;8369;48.030;11.598;2023-05-15T07:00:07;12.20;99.90
16513;DHT22;8369;48.030;11.598;2023-05-15T07:02:33;12.20;99.90
16513;DHT22;8369;48.030;11.598;2023-05-15T07:05:00;12.20;99.90
16513;DHT22;8369;48.030;11.598;2023-05-15T07:07:26;12.30;99.90
16513;DHT22;8369;48.030;11.598;2023-05-15T07:09:54;12.40;99.90
16513;DHT22;8369;48.030;11.598;2023-05-15T07:12:20;12.40;99.90
16513;DHT22;8369;48.030;11.598;2023-05-15T07:14:46;12.40;99.90
16513;DHT22;8369;48.030;11.598;2023-05-15T07:17:12;12.50;99.90
16513;DHT22;8369;48.030;11.598;2023-05-15T07:19:38;12.50;99.90
16513;DHT22;8369;48.030;11.598;2023-05-15T07:22:04;12.50;99.90
16513;DHT22;8369;48.030;11.598;2023-05-15T07:24:31;12.60;99.90
16513;DHT22;8369;48.030;11.598;2023-05-15T07:26:57;12.70;99.90
16513;DHT22;8369;48.030;11.598;2023-05-15T07:29:24;12.70;99.90
16513;DHT22;8369;48.030;11.598;2023-05-15T07:31:52;12.70;99.90
16513;DHT22;8369;48.030;11.598;2023-05-15T07:34:18;12.70;99.90
16513;DHT22;8369;48.030;11.598;2023-05-15T07:36:44;12.70;99.90
16513;DHT22;8369;48.030;11.598;2023-05-15T07:39:19;12.70;99.90
16513;DHT22;8369;48.030;11.598;2023-05-15T07:41:45;12.80;99.90
16513;DHT22;8369;48.030;11.598;2023-05-15T07:44:12;12.80;99.90
16513;DHT22;8369;48.030;11.598;2023-05-15T07:46:38;12.90;99.90
16513;DHT22;8369;48.030;11.598;2023-05-15T07:49:04;12.90;99.90
16513;DHT22;8369;48.030;11.598;2023-05-15T07:51:30;12.90;99.90
16513;DHT22;8369;48.030;11.598;2023-05-15T07:53:56;13.00;99.90
16513;DHT22;8369;48.030;11.598;2023-05-15T07:56:23;13.20;99.90
16513;DHT22;8369;48.030;11.598;2023-05-15T07:58:49;13.20;99.90
16513;DHT22;8369;48.030;11.598;2023-05-15T08:01:15;13.40;99.90
16513;DHT22;8369;48.030;11.598;2023-05-15T08:03:42;13.60;99.90
16513;DHT22;8369;48.030;11.598;2023-05-15T08:06:08;13.80;99.90
16513;DHT22;8369;48.030;11.598;2023-05-15T08:08:35;13.90;99.90
16513;DHT22;8369;48.030;11.598;2023-05-15T08:11:02;14.10;99.90
16513;DHT22;8369;48.030;11.598;2023-05-15T08:13:29;14.20;99.90
16513;DHT22;8369;48.030;11.598;2023-05-15T08:15:55;14.40;99.90
16513;DHT22;8369;48.030;11.598;2023-05-15T08:18:23;14.60;99.90
16513;DHT22;8369;48.030;11.598;2023-05-15T08:20:50;14.70;99.90
16513;DHT22;8369;48.030;11.598;2023-05-15T08:23:16;14.90;99.90
16513;DHT22;8369;48.030;11.598;2023-05-15T08:25:43;15.20;99.90
16513;DHT22;8369;48.030;11.598;2023-05-15T08:28:09;15.30;99.90
16513;DHT22;8369;48.030;11.598;2023-05-15T08:30:35;15.30;99.90
16513;DHT22;8369;48.030;11.598;2023-05-15T08:33:02;15.40;99.90
16513;DHT22;8369;48.030;11.598;2023-05-15T08:35:29;15.40;99.90
16513;DHT22;8369;48.030;11.598;2023-05-15T08:37:56;15.40;99.90
16513;DHT22;8369;48.030;11.598;2023-05-15T08:40:23;15.40;99.90
16513;DHT22;8369;48.030;11.598;2023-05-15T08:42:53;15.60;99.90
16513;DHT22;8369;48.030;11.598;2023-05-15T08:45:20;15.60;99.90
16513;DHT22;8369;48.030;11.598;2023-05-15T08:47:48;15.80;99.90
16513;DHT22;8369;48.030;11.598;2023-05-15T08:50:15;15.90;99.90
16513;DHT22;8369;48.030;11.598;2023-05-15T08:52:44;15.90;99.90
16513;DHT22;8369;48.030;11.598;2023-05-15T08:55:15;16.00;99.90
16513;DHT22;8369;48.030;11.598;2023-05-15T08:57:42;16.10;99.90
16513;DHT22;8369;48.030;11.598;2023-05-15T09:00:10;16.10;99.90
16513;DHT22;8369;48.030;11.598;2023-05-15T09:02:40;16.10;99.90
16513;DHT22;8369;48.030;11.598;2023-05-15T09:05:08;16.10;99.90
16513;DHT22;8369;48.030;11.598;2023-05-15T09:07:34;16.00;99.90
16513;DHT22;8369;48.030;11.598;2023-05-15T09:10:02;15.90;99.90
16513;DHT22;8369;48.030;11.598;2023-05-15T09:12:32;15.80;99.90
16513;DHT22;8369;48.030;11.598;2023-05-15T09:15:15;15.70;99.90
16513;DHT22;8369;48.030;11.598;2023-05-15T09:17:49;15.60;99.90
16513;DHT22;8369;48.030;11.598;2023-05-15T09:22:52;15.50;99.90
16513;DHT22;8369;48.030;11.598;2023-05-15T09:25:49;15.50;99.90
16513;DHT22;8369;48.030;11.598;2023-05-15T09:31:00;15.40;99.90
16513;DHT22;8369;48.030;11.598;2023-05-15T09:33:38;15.40;99.90
16513;DHT22;8369;48.030;11.598;2023-05-15T09:36:06;15.40;99.90
16513;DHT22;8369;48.030;11.598;2023-05-15T09:38:42;15.30;99.90
16513;DHT22;8369;48.030;11.598;2023-05-15T09:41:12;15.40;99.90
16513;DHT22;8369;48.030;11.598;2023-05-15T09:43:40;15.50;99.90
16513;DHT22;8369;48.030;11.598;2023-05-15T09:46:07;15.50;99.90
16513;DHT22;8369;48.030;11.598;2023-05-15T09:48:34;15.50;99.90
16513;DHT22;8369;48.030;11.598;2023-05-15T09:51:01;15.60;99.90
16513;DHT22;8369;48.030;11.598;2023-05-15T09:53:28;15.50;99.90
16513;DHT22;8369;48.030;11.598;2023-05-15T09:55:55;15.50;99.90
16513;DHT22;8369;48.030;11.598;2023-05-15T09:58:21;15.50;99.90
16513;DHT22;8369;48.030;11.598;2023-05-15T10:00:48;15.50;99.90
16513;DHT22;8369;48.030;11.598;2023-05-15T10:03:16;15.50;99.90
16513;DHT22;8369;48.030;11.598;2023-05-15T10:05:43;15.50;99.90
16513;DHT22;8369;48.030;11.598;2023-05-15T10:08:10;15.40;99.90
16513;DHT22;8369;48.030;11.598;2023-05-15T10:14:07;15.30;99.90
16513;DHT22;8369;48.030;11.598;2023-05-15T10:16:39;15.40;99.90
16513;DHT22;8369;48.030;11.598;2023-05-15T10:19:07;15.30;99.90
16513;DHT22;8369;48.030;11.598;2023-05-15T10:21:38;15.40;99.90
16513;DHT22;8369;48.030;11.598;2023-05-15T10:24:05;15.50;99.90
16513;DHT22;8369;48.030;11.598;2023-05-15T10:30:25;15.60;99.90
16513;DHT22;8369;48.030;11.598;2023-05-15T10:33:01;15.80;99.90
16513;DHT22;8369;48.030;11.598;2023-05-15T10:35:38;15.90;99.90
16513;DHT22;8369;48.030;11.598;2023-05-15T10:38:16;16.00;99.90
16513;DHT22;8369;48.030;11.598;2023-05-15T10:40:48;16.00;99.90
16513;DHT22;8369;48.030;11.598;2023-05-15T10:43:19;16.00;99.90
16513;DHT22;8369;48.030;11.598;2023-05-15T10:46:05;15.90;99.90
16513;DHT22;8369;48.030;11.598;2023-05-15T10:48:39;15.70;99.90
16513;DHT22;8369;48.030;11.598;2023-05-15T10:54:18;15.30;99.90
16513;DHT22;8369;48.030;11.598;2023-05-15T10:57:07;15.00;99.90
16513;DHT22;8369;48.030;11.598;2023-05-15T10:59:48;14.70;99.90
16513;DHT22;8369;48.030;11.598;2023-05-15T11:02:26;14.60;99.90
16513;DHT22;8369;48.030;11.598;2023-05-15T11:04:59;14.40;99.90
16513;DHT22;8369;48.030;11.598;2023-05-15T11:07:39;14.30;99.90
16513;DHT22;8369;48.030;11.598;2023-05-15T11:12:56;14.20;99.90
16513;DHT22;8369;48.030;11.598;2023-05-15T11:15:23;14.10;99.90
16513;DHT22;8369;48.030;11.598;2023-05-15T11:18:07;14.10;99.90
16513;DHT22;8369;48.030;11.598;2023-05-15T11:23:24;14.10;99.90
16513;DHT22;8369;48.030;11.598;2023-05-15T11:25:56;14.20;99.90
16513;DHT22;8369;48.030;11.598;2023-05-15T11:28:25;14.30;99.90
16513;DHT22;8369;48.030;11.598;2023-05-15T11:30:58;14.40;99.90
16513;DHT22;8369;48.030;11.598;2023-05-15T11:33:28;14.60;99.90
16513;DHT22;8369;48.030;11.598;2023-05-15T11:36:00;14.70;99.90
16513;DHT22;8369;48.030;11.598;2023-05-15T11:38:36;14.70;99.90
16513;DHT22;8369;48.030;11.598;2023-05-15T11:41:16;14.70;99.90
16513;DHT22;8369;48.030;11.598;2023-05-15T11:43:42;14.80;99.90
16513;DHT22;8369;48.030;11.598;2023-05-15T11:46:10;14.80;99.90
16513;DHT22;8369;48.030;11.598;2023-05-15T11:48:43;14.80;99.90
16513;DHT22;8369;48.030;11.598;2023-05-15T11:51:20;14.70;99.90
16513;DHT22;8369;48.030;11.598;2023-05-15T11:53:49;14.70;99.90
16513;DHT22;8369;48.030;11.598;2023-05-15T11:56:18;14.70;99.90
16513;DHT22;8369;48.030;11.598;2023-05-15T11:58:50;14.70;99.90
16513;DHT22;8369;48.030;11.598;2023-05-15T12:01:16;14.60;99.90
16513;DHT22;8369;48.030;11.598;2023-05-15T12:03:49;14.60;99.90
16513;DHT22;8369;48.030;11.598;2023-05-15T12:06:17;14.50;99.90
16513;DHT22;8369;48.030;11.598;2023-05-15T12:08:43;14.40;99.90
16513;DHT22;8369;48.030;11.598;2023-05-15T12:11:21;14.20;99.90
16513;DHT22;8369;48.030;11.598;2023-05-15T12:13:50;14.10;99.90
16513;DHT22;8369;48.030;11.598;2023-05-15T12:16:23;14.00;99.90
16513;DHT22;8369;48.030;11.598;2023-05-15T12:18:50;14.00;99.90
16513;DHT22;8369;48.030;11.598;2023-05-15T12:21:51;13.90;99.90
16513;DHT22;8369;48.030;11.598;2023-05-15T12:24:19;13.80;99.90
16513;DHT22;8369;48.030;11.598;2023-05-15T12:26:45;13.70;99.90
16513;DHT22;8369;48.030;11.598;2023-05-15T12:29:12;13.70;99.90
16513;DHT22;8369;48.030;11.598;2023-05-15T12:31:39;13.60;99.90
16513;DHT22;8369;48.030;11.598;2023-05-15T12:34:05;13.50;99.90
16513;DHT22;8369;48.030;11.598;2023-05-15T12:36:31;13.40;99.90
16513;DHT22;8369;48.030;11.598;2023-05-15T12:39:04;13.30;99.90
16513;DHT22;8369;48.030;11.598;2023-05-15T12:41:30;13.20;99.90
16513;DHT22;8369;48.030;11.598;2023-05-15T12:43:58;13.20;99.90
16513;DHT22;8369;48.030;11.598;2023-05-15T12:46:31;13.10;99.90
16513;DHT22;8369;48.030;11.598;2023-05-15T12:48:58;13.10;99.90
16513;DHT22;8369;48.030;11.598;2023-05-15T12:51:24;13.00;99.90
16513;DHT22;8369;48.030;11.598;2023-05-15T12:53:54;13.00;99.90
16513;DHT22;8369;48.030;11.598;2023-05-15T12:59:31;12.80;99.90
16513;DHT22;8369;48.030;11.598;2023-05-15T13:01:57;12.70;99.90
16513;DHT22;8369;48.030;11.598;2023-05-15T13:04:24;12.70;99.90
16513;DHT22;8369;48.030;11.598;2023-05-15T13:06:50;12.60;99.90
16513;DHT22;8369;48.030;11.598;2023-05-15T13:09:24;12.60;99.90
16513;DHT22;8369;48.030;11.598;2023-05-15T13:11:54;12.60;99.90
16513;DHT22;8369;48.030;11.598;2023-05-15T13:14:21;12.60;99.90
16513;DHT22;8369;48.030;11.598;2023-05-15T13:16:51;12.60;99.90
16513;DHT22;8369;48.030;11.598;2023-05-15T13:19:18;12.60;99.90
16513;DHT22;8369;48.030;11.598;2023-05-15T13:21:45;12.60;99.90
16513;DHT22;8369;48.030;11.598;2023-05-15T13:24:20;12.60;99.90
16513;DHT22;8369;48.030;11.598;2023-05-15T13:26:48;12.60;99.90
16513;DHT22;8369;48.030;11.598;2023-05-15T13:29:14;12.60;99.90
16513;DHT22;8369;48.030;11.598;2023-05-15T13:31:41;12.60;99.90
16513;DHT22;8369;48.030;11.598;2023-05-15T13:34:07;12.70;99.90
16513;DHT22;8369;48.030;11.598;2023-05-15T13:36:33;12.70;99.90
16513;DHT22;8369;48.030;11.598;2023-05-15T13:39:00;12.80;99.90
16513;DHT22;8369;48.030;11.598;2023-05-15T13:41:26;12.80;99.90
16513;DHT22;8369;48.030;11.598;2023-05-15T13:43:53;12.90;99.90
16513;DHT22;8369;48.030;11.598;2023-05-15T13:46:20;13.00;99.90
16513;DHT22;8369;48.030;11.598;2023-05-15T13:48:46;13.00;99.90
16513;DHT22;8369;48.030;11.598;2023-05-15T13:51:12;13.10;99.90
16513;DHT22;8369;48.030;11.598;2023-05-15T13:53:38;13.20;99.90
16513;DHT22;8369;48.030;11.598;2023-05-15T13:56:06;13.20;99.90
16513;DHT22;8369;48.030;11.598;2023-05-15T13:58:32;13.30;99.90
16513;DHT22;8369;48.030;11.598;2023-05-15T14:01:04;13.30;99.90
16513;DHT22;8369;48.030;11.598;2023-05-15T14:03:31;13.50;99.90
16513;DHT22;8369;48.030;11.598;2023-05-15T14:06:00;13.50;99.90
16513;DHT22;8369;48.030;11.598;2023-05-15T14:08:26;13.50;99.90
16513;DHT22;8369;48.030;11.598;2023-05-15T14:10:52;13.60;99.90
16513;DHT22;8369;48.030;11.598;2023-05-15T14:13:19;13.60;99.90
16513;DHT22;8369;48.030;11.598;2023-05-15T14:15:45;13.70;99.90
16513;DHT22;8369;48.030;11.598;2023-05-15T14:18:11;13.70;99.90
16513;DHT22;8369;48.030;11.598;2023-05-15T14:20:37;13.70;99.90
16513;DHT22;8369;48.030;11.598;2023-05-15T14:23:03;13.80;99.90
16513;DHT22;8369;48.030;11.598;2023-05-15T14:25:30;13.70;99.90
16513;DHT22;8369;48.030;11.598;2023-05-15T14:27:56;13.70;99.90
16513;DHT22;8369;48.030;11.598;2023-05-15T14:30:22;13.70;99.90
16513;DHT22;8369;48.030;11.598;2023-05-15T14:32:49;13.70;99.90
16513;DHT22;8369;48.030;11.598;2023-05-15T14:35:15;13.70;99.90
16513;DHT22;8369;48.030;11.598;2023-05-15T14:37:41;13.70;99.90
16513;DHT22;8369;48.030;11.598;2023-05-15T14:40:08;13.70;99.90
16513;DHT22;8369;48.030;11.598;2023-05-15T14:42:34;13.70;99.90
16513;DHT22;8369;48.030;11.598;2023-05-15T14:45:01;13.70;99.90
16513;DHT22;8369;48.030;11.598;2023-05-15T14:47:29;13.70;99.90
16513;DHT22;8369;48.030;11.598;2023-05-15T14:49:55;13.70;99.90
16513;DHT22;8369;48.030;11.598;2023-05-15T14:52:37;13.80;99.90
16513;DHT22;8369;48.030;11.598;2023-05-15T14:55:03;13.80;99.90
16513;DHT22;8369;48.030;11.598;2023-05-15T14:57:31;13.90;99.90
16513;DHT22;8369;48.030;11.598;2023-05-15T14:59:57;13.90;99.90
16513;DHT22;8369;48.030;11.598;2023-05-15T15:02:24;13.90;99.90
16513;DHT22;8369;48.030;11.598;2023-05-15T15:04:50;13.90;99.90
16513;DHT22;8369;48.030;11.598;2023-05-15T15:07:16;13.80;99.90
16513;DHT22;8369;48.030;11.598;2023-05-15T15:09:42;13.90;99.90
16513;DHT22;8369;48.030;11.598;2023-05-15T15:12:08;13.80;99.90
16513;DHT22;8369;48.030;11.598;2023-05-15T15:14:34;13.70;99.90
16513;DHT22;8369;48.030;11.598;2023-05-15T15:17:00;13.50;99.90
16513;DHT22;8369;48.030;11.598;2023-05-15T15:19:26;13.50;99.90
16513;DHT22;8369;48.030;11.598;2023-05-15T15:21:52;13.30;99.90
16513;DHT22;8369;48.030;11.598;2023-05-15T15:24:18;13.20;99.90
16513;DHT22;8369;48.030;11.598;2023-05-15T15:26:45;13.10;99.90
16513;DHT22;8369;48.030;11.598;2023-05-15T15:29:13;13.00;99.90
16513;DHT22;8369;48.030;11.598;2023-05-15T15:31:41;13.00;99.90
16513;DHT22;8369;48.030;11.598;2023-05-15T15:34:10;12.90;99.90
16513;DHT22;8369;48.030;11.598;2023-05-15T15:36:36;12.90;99.90
16513;DHT22;8369;48.030;11.598;2023-05-15T15:39:06;12.90;99.90
16513;DHT22;8369;48.030;11.598;2023-05-15T15:41:37;12.80;99.90
16513;DHT22;8369;48.030;11.598;2023-05-15T15:44:07;12.80;99.90
16513;DHT22;8369;48.030;11.598;2023-05-15T15:46:37;12.80;99.90
16513;DHT22;8369;48.030;11.598;2023-05-15T15:49:04;12.80;99.90
16513;DHT22;8369;48.030;11.598;2023-05-15T15:51:34;12.90;99.90
16513;DHT22;8369;48.030;11.598;2023-05-15T15:54:00;12.90;99.90
16513;DHT22;8369;48.030;11.598;2023-05-15T15:56:26;13.00;99.90
16513;DHT22;8369;48.030;11.598;2023-05-15T15:58:53;13.00;99.90
16513;DHT22;8369;48.030;11.598;2023-05-15T16:01:20;13.00;99.90
16513;DHT22;8369;48.030;11.598;2023-05-15T16:03:48;13.10;99.90
16513;DHT22;8369;48.030;11.598;2023-05-15T16:06:14;13.20;99.90
16513;DHT22;8369;48.030;11.598;2023-05-15T16:08:43;13.30;99.90
16513;DHT22;8369;48.030;11.598;2023-05-15T16:11:10;13.40;99.90
16513;DHT22;8369;48.030;11.598;2023-05-15T16:13:38;13.50;99.90
16513;DHT22;8369;48.030;11.598;2023-05-15T16:16:03;13.60;99.90